sensor_id;sensor_type;location;lat;lon;timestamp;P1;durP1;ratioP1;P2;durP2;ratioP2
7051;SDS011;3567;52.444;13.556;2023-02-27T00:00:22;3.50;;;2.10;;
7051;SDS011;3567;52.444;13.556;2023-02-27T00:02:48;3.28;;;2.03;;
7051;SDS011;3567;52.444;13.556;2023-02-27T00:05:15;5.00;;;2.38;;
7051;SDS011;3567;52.444;13.556;2023-02-27T00:07:41;2.28;;;1.85;;
7051;SDS011;3567;52.444;13.556;2023-02-27T00:10:06;4.25;;;2.25;;
7051;SDS011;3567;52.444;13.556;2023-02-27T00:12:33;5.80;;;2.17;;
7051;SDS011;3567;52.444;13.556;2023-02-27T00:15:13;2.72;;;1.85;;
7051;SDS011;3567;52.444;13.556;2023-02-27T00:17:41;4.13;;;2.05;;
7051;SDS011;3567;52.444;13.556;2023-02-27T00:20:07;6.70;;;2.55;;
7051;SDS011;3567;52.444;13.556;2023-02-27T00:22:38;4.30;;;1.80;;
7051;SDS011;3567;52.444;13.556;2023-02-27T00:25:05;5.07;;;2.42;;
7051;SDS011;3567;52.444;13.556;2023-02-27T00:27:31;4.00;;;2.20;;
7051;SDS011;3567;52.444;13.556;2023-02-27T00:29:58;2.97;;;1.38;;
7051;SDS011;3567;52.444;13.556;2023-02-27T00:32:23;2.72;;;1.80;;
7051;SDS011;3567;52.444;13.556;2023-02-27T00:34:49;4.07;;;1.95;;
7051;SDS011;3567;52.444;13.556;2023-02-27T00:37:14;3.83;;;2.17;;
7051;SDS011;3567;52.444;13.556;2023-02-27T00:39:40;2.35;;;1.17;;
7051;SDS011;3567;52.444;13.556;2023-02-27T00:42:05;5.15;;;2.05;;
7051;SDS011;3567;52.444;13.556;2023-02-27T00:44:31;2.05;;;1.27;;
7051;SDS011;3567;52.444;13.556;2023-02-27T00:46:56;3.28;;;1.38;;
7051;SDS011;3567;52.444;13.556;2023-02-27T00:49:22;2.28;;;1.50;;
7051;SDS011;3567;52.444;13.556;2023-02-27T00:51:49;1.90;;;1.33;;
7051;SDS011;3567;52.444;13.556;2023-02-27T00:54:14;3.03;;;1.50;;
7051;SDS011;3567;52.444;13.556;2023-02-27T00:56:40;2.58;;;1.17;;
7051;SDS011;3567;52.444;13.556;2023-02-27T00:59:05;2.63;;;1.20;;
7051;SDS011;3567;52.444;13.556;2023-02-27T01:01:30;1.95;;;1.35;;
7051;SDS011;3567;52.444;13.556;2023-02-27T01:03:56;1.58;;;1.48;;
7051;SDS011;3567;52.444;13.556;2023-02-27T01:06:21;1.80;;;1.08;;
7051;SDS011;3567;52.444;13.556;2023-02-27T01:08:47;1.38;;;1.13;;
7051;SDS011;3567;52.444;13.556;2023-02-27T01:11:12;2.40;;;1.85;;
7051;SDS011;3567;52.444;13.556;2023-02-27T01:13:37;2.15;;;1.23;;
7051;SDS011;3567;52.444;13.556;2023-02-27T01:16:03;3.03;;;1.10;;
7051;SDS011;3567;52.444;13.556;2023-02-27T01:18:28;1.25;;;1.05;;
7051;SDS011;3567;52.444;13.556;2023-02-27T01:20:54;4.20;;;1.25;;
7051;SDS011;3567;52.444;13.556;2023-02-27T01:23:20;3.55;;;1.30;;
7051;SDS011;3567;52.444;13.556;2023-02-27T01:25:47;3.88;;;1.30;;
7051;SDS011;3567;52.444;13.556;2023-02-27T01:28:13;1.85;;;1.27;;
7051;SDS011;3567;52.444;13.556;2023-02-27T01:30:38;3.80;;;1.48;;
7051;SDS011;3567;52.444;13.556;2023-02-27T01:33:05;3.17;;;1.40;;
7051;SDS011;3567;52.444;13.556;2023-02-27T01:35:31;2.55;;;0.70;;
7051;SDS011;3567;52.444;13.556;2023-02-27T01:37:56;3.53;;;1.13;;
7051;SDS011;3567;52.444;13.556;2023-02-27T01:40:21;1.80;;;1.30;;
7051;SDS011;3567;52.444;13.556;2023-02-27T01:42:47;5.70;;;1.55;;
7051;SDS011;3567;52.444;13.556;2023-02-27T01:47:51;1.67;;;1.10;;
7051;SDS011;3567;52.444;13.556;2023-02-27T01:50:21;1.73;;;1.27;;
7051;SDS011;3567;52.444;13.556;2023-02-27T01:52:56;1.08;;;1.02;;
7051;SDS011;3567;52.444;13.556;2023-02-27T01:55:24;1.67;;;1.00;;
7051;SDS011;3567;52.444;13.556;2023-02-27T01:57:51;1.35;;;0.90;;
7051;SDS011;3567;52.444;13.556;2023-02-27T02:00:17;2.70;;;1.20;;
7051;SDS011;3567;52.444;13.556;2023-02-27T02:02:54;2.78;;;1.25;;
7051;SDS011;3567;52.444;13.556;2023-02-27T02:05:24;1.88;;;1.23;;
7051;SDS011;3567;52.444;13.556;2023-02-27T02:07:50;2.03;;;1.10;;
7051;SDS011;3567;52.444;13.556;2023-02-27T02:10:17;1.85;;;0.82;;
7051;SDS011;3567;52.444;13.556;2023-02-27T02:12:44;3.25;;;1.35;;
7051;SDS011;3567;52.444;13.556;2023-02-27T02:15:11;1.75;;;1.00;;
7051;SDS011;3567;52.444;13.556;2023-02-27T02:20:27;1.27;;;1.00;;
7051;SDS011;3567;52.444;13.556;2023-02-27T02:23:18;3.00;;;1.50;;
7051;SDS011;3567;52.444;13.556;2023-02-27T02:54:32;6.18;;;1.60;;
7051;SDS011;3567;52.444;13.556;2023-02-27T02:57:03;2.70;;;1.15;;
7051;SDS011;3567;52.444;13.556;2023-02-27T02:59:34;3.03;;;1.65;;
7051;SDS011;3567;52.444;13.556;2023-02-27T03:02:05;1.73;;;1.45;;
7051;SDS011;3567;52.444;13.556;2023-02-27T03:07:18;3.10;;;1.58;;
7051;SDS011;3567;52.444;13.556;2023-02-27T03:10:10;1.35;;;1.13;;
7051;SDS011;3567;52.444;13.556;2023-02-27T03:12:34;2.97;;;1.70;;
7051;SDS011;3567;52.444;13.556;2023-02-27T03:18:18;2.65;;;1.50;;
7051;SDS011;3567;52.444;13.556;2023-02-27T03:20:56;8.20;;;1.65;;
7051;SDS011;3567;52.444;13.556;2023-02-27T03:23:29;5.32;;;2.42;;
7051;SDS011;3567;52.444;13.556;2023-02-27T03:26:06;4.47;;;2.08;;
7051;SDS011;3567;52.444;13.556;2023-02-27T03:28:33;3.50;;;2.40;;
7051;SDS011;3567;52.444;13.556;2023-02-27T03:31:18;3.30;;;2.33;;
7051;SDS011;3567;52.444;13.556;2023-02-27T03:33:56;3.08;;;2.15;;
7051;SDS011;3567;52.444;13.556;2023-02-27T03:42:46;4.97;;;1.88;;
7051;SDS011;3567;52.444;13.556;2023-02-27T03:45:19;4.78;;;2.00;;
7051;SDS011;3567;52.444;13.556;2023-02-27T03:47:52;4.22;;;1.60;;
7051;SDS011;3567;52.444;13.556;2023-02-27T03:50:18;3.95;;;2.03;;
7051;SDS011;3567;52.444;13.556;2023-02-27T03:52:43;3.80;;;2.03;;
7051;SDS011;3567;52.444;13.556;2023-02-27T03:55:11;2.53;;;1.40;;
7051;SDS011;3567;52.444;13.556;2023-02-27T03:57:40;3.85;;;2.22;;
7051;SDS011;3567;52.444;13.556;2023-02-27T04:00:07;2.42;;;1.25;;
7051;SDS011;3567;52.444;13.556;2023-02-27T04:02:35;2.72;;;1.40;;
7051;SDS011;3567;52.444;13.556;2023-02-27T04:05:02;4.57;;;2.60;;
7051;SDS011;3567;52.444;13.556;2023-02-27T04:07:39;2.50;;;1.67;;
7051;SDS011;3567;52.444;13.556;2023-02-27T04:15:39;1.88;;;1.50;;
7051;SDS011;3567;52.444;13.556;2023-02-27T04:20:59;3.90;;;1.73;;
7051;SDS011;3567;52.444;13.556;2023-02-27T04:26:27;2.53;;;1.63;;
7051;SDS011;3567;52.444;13.556;2023-02-27T04:34:52;3.53;;;1.45;;
7051;SDS011;3567;52.444;13.556;2023-02-27T04:37:26;5.65;;;1.77;;
7051;SDS011;3567;52.444;13.556;2023-02-27T04:39:59;3.25;;;1.80;;
7051;SDS011;3567;52.444;13.556;2023-02-27T04:42:31;2.80;;;1.67;;
7051;SDS011;3567;52.444;13.556;2023-02-27T04:45:02;3.63;;;1.75;;
7051;SDS011;3567;52.444;13.556;2023-02-27T04:47:32;5.47;;;1.48;;
7051;SDS011;3567;52.444;13.556;2023-02-27T04:50:08;3.67;;;2.63;;
7051;SDS011;3567;52.444;13.556;2023-02-27T04:52:43;1.90;;;1.67;;
7051;SDS011;3567;52.444;13.556;2023-02-27T04:57:56;2.80;;;2.33;;
7051;SDS011;3567;52.444;13.556;2023-02-27T05:00:29;2.80;;;1.85;;
7051;SDS011;3567;52.444;13.556;2023-02-27T05:02:59;2.25;;;1.50;;
7051;SDS011;3567;52.444;13.556;2023-02-27T05:05:31;3.75;;;1.48;;
7051;SDS011;3567;52.444;13.556;2023-02-27T05:08:02;4.03;;;1.40;;
7051;SDS011;3567;52.444;13.556;2023-02-27T05:10:39;2.30;;;1.35;;
7051;SDS011;3567;52.444;13.556;2023-02-27T05:15:51;5.22;;;3.03;;
7051;SDS011;3567;52.444;13.556;2023-02-27T05:18:22;7.93;;;2.85;;
7051;SDS011;3567;52.444;13.556;2023-02-27T05:20:54;3.60;;;2.17;;
7051;SDS011;3567;52.444;13.556;2023-02-27T05:26:03;4.18;;;1.40;;
7051;SDS011;3567;52.444;13.556;2023-02-27T05:28:43;2.67;;;1.50;;
7051;SDS011;3567;52.444;13.556;2023-02-27T05:31:16;2.38;;;1.65;;
7051;SDS011;3567;52.444;13.556;2023-02-27T05:34:47;13.20;;;1.88;;
7051;SDS011;3567;52.444;13.556;2023-02-27T05:39:24;3.63;;;1.85;;
7051;SDS011;3567;52.444;13.556;2023-02-27T05:41:59;3.80;;;1.60;;
7051;SDS011;3567;52.444;13.556;2023-02-27T05:44:30;5.53;;;1.52;;
7051;SDS011;3567;52.444;13.556;2023-02-27T05:46:59;2.40;;;1.80;;
7051;SDS011;3567;52.444;13.556;2023-02-27T05:49:33;4.05;;;1.70;;
7051;SDS011;3567;52.444;13.556;2023-02-27T05:52:00;2.42;;;1.67;;
7051;SDS011;3567;52.444;13.556;2023-02-27T05:54:35;2.45;;;1.73;;
7051;SDS011;3567;52.444;13.556;2023-02-27T05:57:21;5.05;;;2.13;;
7051;SDS011;3567;52.444;13.556;2023-02-27T05:59:54;3.63;;;2.35;;
7051;SDS011;3567;52.444;13.556;2023-02-27T06:02:38;3.97;;;1.83;;
7051;SDS011;3567;52.444;13.556;2023-02-27T06:05:05;3.70;;;1.70;;
7051;SDS011;3567;52.444;13.556;2023-02-27T06:07:32;4.03;;;2.35;;
7051;SDS011;3567;52.444;13.556;2023-02-27T06:09:58;5.00;;;2.10;;
7051;SDS011;3567;52.444;13.556;2023-02-27T06:12:23;4.03;;;2.53;;
7051;SDS011;3567;52.444;13.556;2023-02-27T06:14:49;6.30;;;2.70;;
7051;SDS011;3567;52.444;13.556;2023-02-27T06:17:15;5.70;;;2.38;;
7051;SDS011;3567;52.444;13.556;2023-02-27T06:19:41;5.45;;;2.33;;
7051;SDS011;3567;52.444;13.556;2023-02-27T06:22:07;6.10;;;3.00;;
7051;SDS011;3567;52.444;13.556;2023-02-27T06:24:36;22.80;;;8.50;;
7051;SDS011;3567;52.444;13.556;2023-02-27T06:27:01;6.63;;;4.05;;
7051;SDS011;3567;52.444;13.556;2023-02-27T06:29:27;8.80;;;3.45;;
7051;SDS011;3567;52.444;13.556;2023-02-27T06:31:52;8.38;;;4.22;;
7051;SDS011;3567;52.444;13.556;2023-02-27T06:34:18;10.07;;;4.38;;
7051;SDS011;3567;52.444;13.556;2023-02-27T06:36:43;10.50;;;4.05;;
7051;SDS011;3567;52.444;13.556;2023-02-27T06:39:08;3.75;;;3.03;;
7051;SDS011;3567;52.444;13.556;2023-02-27T06:41:34;5.80;;;3.10;;
7051;SDS011;3567;52.444;13.556;2023-02-27T06:43:59;7.22;;;2.45;;
7051;SDS011;3567;52.444;13.556;2023-02-27T06:46:24;6.22;;;2.47;;
7051;SDS011;3567;52.444;13.556;2023-02-27T06:48:50;6.10;;;2.72;;
7051;SDS011;3567;52.444;13.556;2023-02-27T06:51:15;5.88;;;2.78;;
7051;SDS011;3567;52.444;13.556;2023-02-27T06:53:41;7.20;;;3.13;;
7051;SDS011;3567;52.444;13.556;2023-02-27T06:56:06;10.00;;;3.20;;
7051;SDS011;3567;52.444;13.556;2023-02-27T06:58:32;4.22;;;3.03;;
7051;SDS011;3567;52.444;13.556;2023-02-27T07:00:58;9.85;;;3.03;;
7051;SDS011;3567;52.444;13.556;2023-02-27T07:03:24;4.32;;;2.45;;
7051;SDS011;3567;52.444;13.556;2023-02-27T07:05:49;2.97;;;2.25;;
7051;SDS011;3567;52.444;13.556;2023-02-27T07:08:14;4.28;;;2.20;;
7051;SDS011;3567;52.444;13.556;2023-02-27T07:10:41;4.07;;;2.75;;
7051;SDS011;3567;52.444;13.556;2023-02-27T07:13:10;6.47;;;2.72;;
7051;SDS011;3567;52.444;13.556;2023-02-27T07:15:35;8.15;;;2.88;;
7051;SDS011;3567;52.444;13.556;2023-02-27T07:18:01;11.98;;;2.63;;
7051;SDS011;3567;52.444;13.556;2023-02-27T07:20:26;8.88;;;3.28;;
7051;SDS011;3567;52.444;13.556;2023-02-27T07:22:51;5.43;;;3.00;;
7051;SDS011;3567;52.444;13.556;2023-02-27T07:25:17;10.30;;;3.42;;
7051;SDS011;3567;52.444;13.556;2023-02-27T07:27:42;10.90;;;3.92;;
7051;SDS011;3567;52.444;13.556;2023-02-27T07:30:10;5.10;;;2.50;;
7051;SDS011;3567;52.444;13.556;2023-02-27T07:32:36;15.23;;;4.75;;
7051;SDS011;3567;52.444;13.556;2023-02-27T07:35:01;4.45;;;2.80;;
7051;SDS011;3567;52.444;13.556;2023-02-27T07:37:27;4.82;;;2.35;;
7051;SDS011;3567;52.444;13.556;2023-02-27T07:39:53;8.27;;;2.53;;
7051;SDS011;3567;52.444;13.556;2023-02-27T07:42:20;6.63;;;2.78;;
7051;SDS011;3567;52.444;13.556;2023-02-27T07:44:45;6.85;;;3.22;;
7051;SDS011;3567;52.444;13.556;2023-02-27T07:47:10;5.22;;;2.83;;
7051;SDS011;3567;52.444;13.556;2023-02-27T07:49:36;9.15;;;3.13;;
7051;SDS011;3567;52.444;13.556;2023-02-27T07:52:01;9.93;;;2.83;;
7051;SDS011;3567;52.444;13.556;2023-02-27T07:54:27;8.10;;;3.00;;
7051;SDS011;3567;52.444;13.556;2023-02-27T07:56:52;9.77;;;3.42;;
7051;SDS011;3567;52.444;13.556;2023-02-27T07:59:18;7.53;;;3.83;;
7051;SDS011;3567;52.444;13.556;2023-02-27T08:01:43;9.43;;;4.40;;
7051;SDS011;3567;52.444;13.556;2023-02-27T08:04:08;10.25;;;3.10;;
7051;SDS011;3567;52.444;13.556;2023-02-27T08:06:34;5.45;;;3.67;;
7051;SDS011;3567;52.444;13.556;2023-02-27T08:08:59;6.85;;;3.05;;
7051;SDS011;3567;52.444;13.556;2023-02-27T08:11:24;9.10;;;3.20;;
7051;SDS011;3567;52.444;13.556;2023-02-27T08:13:50;6.63;;;2.45;;
7051;SDS011;3567;52.444;13.556;2023-02-27T08:16:15;4.50;;;2.75;;
7051;SDS011;3567;52.444;13.556;2023-02-27T08:18:42;4.25;;;2.92;;
7051;SDS011;3567;52.444;13.556;2023-02-27T08:21:07;4.75;;;2.88;;
7051;SDS011;3567;52.444;13.556;2023-02-27T08:23:33;5.63;;;2.80;;
7051;SDS011;3567;52.444;13.556;2023-02-27T08:26:01;6.32;;;3.60;;
7051;SDS011;3567;52.444;13.556;2023-02-27T08:28:27;5.10;;;3.63;;
7051;SDS011;3567;52.444;13.556;2023-02-27T08:30:53;7.60;;;3.45;;
7051;SDS011;3567;52.444;13.556;2023-02-27T08:33:19;10.15;;;4.95;;
7051;SDS011;3567;52.444;13.556;2023-02-27T08:35:45;8.90;;;4.07;;
7051;SDS011;3567;52.444;13.556;2023-02-27T08:38:10;10.80;;;3.80;;
7051;SDS011;3567;52.444;13.556;2023-02-27T08:40:35;6.28;;;3.67;;
7051;SDS011;3567;52.444;13.556;2023-02-27T08:43:01;7.38;;;3.63;;
7051;SDS011;3567;52.444;13.556;2023-02-27T08:45:26;9.10;;;3.72;;
7051;SDS011;3567;52.444;13.556;2023-02-27T08:47:52;3.70;;;2.83;;
7051;SDS011;3567;52.444;13.556;2023-02-27T08:50:17;3.72;;;3.33;;
7051;SDS011;3567;52.444;13.556;2023-02-27T08:52:43;9.98;;;3.80;;
7051;SDS011;3567;52.444;13.556;2023-02-27T08:55:08;4.78;;;2.72;;
7051;SDS011;3567;52.444;13.556;2023-02-27T08:57:34;4.65;;;3.03;;
7051;SDS011;3567;52.444;13.556;2023-02-27T08:59:59;6.32;;;3.00;;
7051;SDS011;3567;52.444;13.556;2023-02-27T09:02:25;5.95;;;3.42;;
7051;SDS011;3567;52.444;13.556;2023-02-27T09:04:51;3.80;;;3.00;;
7051;SDS011;3567;52.444;13.556;2023-02-27T09:07:17;6.05;;;2.53;;
7051;SDS011;3567;52.444;13.556;2023-02-27T09:09:43;4.25;;;2.65;;
7051;SDS011;3567;52.444;13.556;2023-02-27T09:12:09;7.00;;;3.25;;
7051;SDS011;3567;52.444;13.556;2023-02-27T09:14:34;4.28;;;2.85;;
7051;SDS011;3567;52.444;13.556;2023-02-27T09:17:00;5.07;;;2.67;;
7051;SDS011;3567;52.444;13.556;2023-02-27T09:19:26;4.70;;;2.13;;
7051;SDS011;3567;52.444;13.556;2023-02-27T09:21:51;4.95;;;2.30;;
7051;SDS011;3567;52.444;13.556;2023-02-27T09:24:16;4.50;;;2.58;;
7051;SDS011;3567;52.444;13.556;2023-02-27T09:26:42;3.88;;;2.92;;
7051;SDS011;3567;52.444;13.556;2023-02-27T09:29:07;5.28;;;3.00;;
7051;SDS011;3567;52.444;13.556;2023-02-27T09:31:33;3.08;;;2.60;;
7051;SDS011;3567;52.444;13.556;2023-02-27T09:33:58;5.03;;;2.72;;
7051;SDS011;3567;52.444;13.556;2023-02-27T09:36:25;5.60;;;2.67;;
7051;SDS011;3567;52.444;13.556;2023-02-27T09:38:51;7.55;;;2.40;;
7051;SDS011;3567;52.444;13.556;2023-02-27T09:43:55;6.18;;;3.38;;
7051;SDS011;3567;52.444;13.556;2023-02-27T09:46:21;2.47;;;1.70;;
7051;SDS011;3567;52.444;13.556;2023-02-27T09:51:19;6.63;;;1.33;;
7051;SDS011;3567;52.444;13.556;2023-02-27T09:53:48;6.28;;;2.00;;
7051;SDS011;3567;52.444;13.556;2023-02-27T09:56:20;2.17;;;1.55;;
7051;SDS011;3567;52.444;13.556;2023-02-27T10:07:42;2.33;;;1.63;;
7051;SDS011;3567;52.444;13.556;2023-02-27T10:15:33;6.25;;;2.05;;
7051;SDS011;3567;52.444;13.556;2023-02-27T10:18:15;1.42;;;1.00;;
7051;SDS011;3567;52.444;13.556;2023-02-27T10:20:51;2.78;;;1.10;;
7051;SDS011;3567;52.444;13.556;2023-02-27T10:23:22;3.58;;;1.10;;
7051;SDS011;3567;52.444;13.556;2023-02-27T10:25:55;2.67;;;1.00;;
7051;SDS011;3567;52.444;13.556;2023-02-27T10:28:22;2.60;;;1.30;;
7051;SDS011;3567;52.444;13.556;2023-02-27T10:30:49;2.03;;;1.33;;
7051;SDS011;3567;52.444;13.556;2023-02-27T10:33:21;3.00;;;1.17;;
7051;SDS011;3567;52.444;13.556;2023-02-27T10:36:05;4.80;;;1.20;;
7051;SDS011;3567;52.444;13.556;2023-02-27T10:38:43;1.35;;;0.77;;
7051;SDS011;3567;52.444;13.556;2023-02-27T10:41:13;3.05;;;1.00;;
7051;SDS011;3567;52.444;13.556;2023-02-27T10:43:40;5.25;;;1.30;;
7051;SDS011;3567;52.444;13.556;2023-02-27T10:46:14;2.38;;;0.90;;
7051;SDS011;3567;52.444;13.556;2023-02-27T10:48:41;1.33;;;0.77;;
7051;SDS011;3567;52.444;13.556;2023-02-27T10:51:19;1.58;;;0.68;;
7051;SDS011;3567;52.444;13.556;2023-02-27T10:53:44;3.72;;;1.38;;
7051;SDS011;3567;52.444;13.556;2023-02-27T10:56:12;2.67;;;0.70;;
7051;SDS011;3567;52.444;13.556;2023-02-27T10:58:48;3.50;;;0.82;;
7051;SDS011;3567;52.444;13.556;2023-02-27T11:01:29;0.68;;;0.68;;
7051;SDS011;3567;52.444;13.556;2023-02-27T11:04:06;1.10;;;0.68;;
7051;SDS011;3567;52.444;13.556;2023-02-27T11:06:31;3.22;;;0.40;;
7051;SDS011;3567;52.444;13.556;2023-02-27T11:09:39;0.85;;;0.35;;
7051;SDS011;3567;52.444;13.556;2023-02-27T11:11:54;2.08;;;0.38;;
7051;SDS011;3567;52.444;13.556;2023-02-27T11:14:33;2.78;;;0.30;;
7051;SDS011;3567;52.444;13.556;2023-02-27T11:16:59;1.08;;;0.30;;
7051;SDS011;3567;52.444;13.556;2023-02-27T11:19:33;0.30;;;0.28;;
7051;SDS011;3567;52.444;13.556;2023-02-27T11:22:06;1.92;;;0.60;;
7051;SDS011;3567;52.444;13.556;2023-02-27T11:24:39;0.40;;;0.40;;
7051;SDS011;3567;52.444;13.556;2023-02-27T11:27:18;2.10;;;1.40;;
7051;SDS011;3567;52.444;13.556;2023-02-27T11:30:00;3.53;;;0.60;;
7051;SDS011;3567;52.444;13.556;2023-02-27T11:38:05;0.65;;;0.40;;
7051;SDS011;3567;52.444;13.556;2023-02-27T11:40:47;1.02;;;0.20;;
7051;SDS011;3567;52.444;13.556;2023-02-27T11:43:19;0.95;;;0.30;;
7051;SDS011;3567;52.444;13.556;2023-02-27T11:45:57;0.57;;;0.30;;
7051;SDS011;3567;52.444;13.556;2023-02-27T12:01:37;0.10;;;0.10;;
7051;SDS011;3567;52.444;13.556;2023-02-27T12:06:45;1.23;;;0.77;;
7051;SDS011;3567;52.444;13.556;2023-02-27T12:12:29;0.90;;;0.30;;
7051;SDS011;3567;52.444;13.556;2023-02-27T12:20:44;0.73;;;0.10;;
7051;SDS011;3567;52.444;13.556;2023-02-27T12:23:18;2.10;;;0.17;;
7051;SDS011;3567;52.444;13.556;2023-02-27T12:37:13;3.05;;;0.30;;
7051;SDS011;3567;52.444;13.556;2023-02-27T12:39:44;0.57;;;0.35;;
7051;SDS011;3567;52.444;13.556;2023-02-27T12:44:57;1.73;;;0.30;;
7051;SDS011;3567;52.444;13.556;2023-02-27T12:48:02;0.30;;;0.30;;
7051;SDS011;3567;52.444;13.556;2023-02-27T12:50:37;2.03;;;0.20;;
7051;SDS011;3567;52.444;13.556;2023-02-27T12:56:18;0.20;;;0.20;;
7051;SDS011;3567;52.444;13.556;2023-02-27T13:04:27;0.57;;;0.30;;
7051;SDS011;3567;52.444;13.556;2023-02-27T13:07:08;0.25;;;0.25;;
7051;SDS011;3567;52.444;13.556;2023-02-27T13:10:05;1.08;;;0.40;;
7051;SDS011;3567;52.444;13.556;2023-02-27T13:12:40;0.93;;;0.30;;
7051;SDS011;3567;52.444;13.556;2023-02-27T13:15:14;0.85;;;0.30;;
7051;SDS011;3567;52.444;13.556;2023-02-27T13:17:43;0.52;;;0.28;;
7051;SDS011;3567;52.444;13.556;2023-02-27T13:26:21;0.35;;;0.20;;
7051;SDS011;3567;52.444;13.556;2023-02-27T13:28:52;0.25;;;0.25;;
7051;SDS011;3567;52.444;13.556;2023-02-27T13:31:35;0.20;;;0.20;;
7051;SDS011;3567;52.444;13.556;2023-02-27T13:34:13;2.28;;;0.35;;
7051;SDS011;3567;52.444;13.556;2023-02-27T13:36:41;0.32;;;0.30;;
7051;SDS011;3567;52.444;13.556;2023-02-27T13:47:38;0.20;;;0.20;;
7051;SDS011;3567;52.444;13.556;2023-02-27T13:50:49;1.85;;;0.30;;
7051;SDS011;3567;52.444;13.556;2023-02-27T13:52:49;0.47;;;0.30;;
7051;SDS011;3567;52.444;13.556;2023-02-27T13:55:26;0.57;;;0.50;;
7051;SDS011;3567;52.444;13.556;2023-02-27T13:57:56;3.95;;;0.30;;
7051;SDS011;3567;52.444;13.556;2023-02-27T14:00:24;0.30;;;0.30;;
7051;SDS011;3567;52.444;13.556;2023-02-27T14:02:53;0.30;;;0.30;;
7051;SDS011;3567;52.444;13.556;2023-02-27T14:05:28;1.00;;;0.30;;
7051;SDS011;3567;52.444;13.556;2023-02-27T14:08:05;0.30;;;0.30;;
7051;SDS011;3567;52.444;13.556;2023-02-27T14:10:32;0.70;;;0.40;;
7051;SDS011;3567;52.444;13.556;2023-02-27T14:13:01;0.60;;;0.38;;
7051;SDS011;3567;52.444;13.556;2023-02-27T14:17:56;0.85;;;0.85;;
7051;SDS011;3567;52.444;13.556;2023-02-27T14:25:53;0.40;;;0.30;;
7051;SDS011;3567;52.444;13.556;2023-02-27T14:31:01;1.08;;;0.98;;
7051;SDS011;3567;52.444;13.556;2023-02-27T14:33:33;0.28;;;0.22;;
7051;SDS011;3567;52.444;13.556;2023-02-27T14:36:19;0.45;;;0.45;;
7051;SDS011;3567;52.444;13.556;2023-02-27T14:38:47;0.43;;;0.30;;
7051;SDS011;3567;52.444;13.556;2023-02-27T14:43:41;0.43;;;0.40;;
7051;SDS011;3567;52.444;13.556;2023-02-27T14:46:22;0.30;;;0.30;;
7051;SDS011;3567;52.444;13.556;2023-02-27T14:48:55;1.08;;;0.40;;
7051;SDS011;3567;52.444;13.556;2023-02-27T14:51:22;1.65;;;0.50;;
7051;SDS011;3567;52.444;13.556;2023-02-27T14:54:06;0.20;;;0.20;;
7051;SDS011;3567;52.444;13.556;2023-02-27T14:56:31;3.15;;;0.40;;
7051;SDS011;3567;52.444;13.556;2023-02-27T14:58:58;1.20;;;0.30;;
7051;SDS011;3567;52.444;13.556;2023-02-27T15:01:24;0.32;;;0.32;;
7051;SDS011;3567;52.444;13.556;2023-02-27T15:03:57;1.08;;;0.35;;
7051;SDS011;3567;52.444;13.556;2023-02-27T15:06:33;0.30;;;0.30;;
7051;SDS011;3567;52.444;13.556;2023-02-27T15:09:04;1.30;;;0.40;;
7051;SDS011;3567;52.444;13.556;2023-02-27T15:11:30;0.85;;;0.40;;
7051;SDS011;3567;52.444;13.556;2023-02-27T15:14:00;0.40;;;0.30;;
7051;SDS011;3567;52.444;13.556;2023-02-27T15:16:36;1.33;;;0.32;;
7051;SDS011;3567;52.444;13.556;2023-02-27T15:19:10;2.22;;;0.60;;
7051;SDS011;3567;52.444;13.556;2023-02-27T15:21:39;0.68;;;0.40;;
7051;SDS011;3567;52.444;13.556;2023-02-27T15:24:16;1.45;;;0.40;;
7051;SDS011;3567;52.444;13.556;2023-02-27T15:26:46;1.75;;;0.50;;
7051;SDS011;3567;52.444;13.556;2023-02-27T15:29:19;2.22;;;0.38;;
7051;SDS011;3567;52.444;13.556;2023-02-27T15:31:47;2.72;;;0.40;;
7051;SDS011;3567;52.444;13.556;2023-02-27T15:34:13;0.70;;;0.20;;
7051;SDS011;3567;52.444;13.556;2023-02-27T15:36:41;0.40;;;0.40;;
7051;SDS011;3567;52.444;13.556;2023-02-27T15:41:36;3.22;;;0.30;;
7051;SDS011;3567;52.444;13.556;2023-02-27T15:44:02;1.08;;;0.30;;
7051;SDS011;3567;52.444;13.556;2023-02-27T15:46:29;0.70;;;0.45;;
7051;SDS011;3567;52.444;13.556;2023-02-27T15:48:55;1.70;;;0.55;;
7051;SDS011;3567;52.444;13.556;2023-02-27T15:51:20;1.10;;;0.63;;
7051;SDS011;3567;52.444;13.556;2023-02-27T15:53:49;0.88;;;0.57;;
7051;SDS011;3567;52.444;13.556;2023-02-27T15:56:17;1.38;;;0.75;;
7051;SDS011;3567;52.444;13.556;2023-02-27T15:58:50;1.00;;;0.90;;
7051;SDS011;3567;52.444;13.556;2023-02-27T16:03:55;1.17;;;0.80;;
7051;SDS011;3567;52.444;13.556;2023-02-27T16:06:26;3.97;;;1.02;;
7051;SDS011;3567;52.444;13.556;2023-02-27T16:08:55;1.92;;;1.20;;
7051;SDS011;3567;52.444;13.556;2023-02-27T16:11:27;0.88;;;0.65;;
7051;SDS011;3567;52.444;13.556;2023-02-27T16:13:56;0.90;;;0.47;;
7051;SDS011;3567;52.444;13.556;2023-02-27T16:16:27;2.20;;;0.52;;
7051;SDS011;3567;52.444;13.556;2023-02-27T16:19:13;0.95;;;0.50;;
7051;SDS011;3567;52.444;13.556;2023-02-27T16:24:42;0.68;;;0.50;;
7051;SDS011;3567;52.444;13.556;2023-02-27T16:27:24;4.45;;;0.73;;
7051;SDS011;3567;52.444;13.556;2023-02-27T16:29:53;3.75;;;0.75;;
7051;SDS011;3567;52.444;13.556;2023-02-27T16:34:50;2.00;;;1.00;;
7051;SDS011;3567;52.444;13.556;2023-02-27T16:37:34;2.08;;;1.00;;
7051;SDS011;3567;52.444;13.556;2023-02-27T16:40:07;1.33;;;0.70;;
7051;SDS011;3567;52.444;13.556;2023-02-27T16:42:43;1.70;;;0.90;;
7051;SDS011;3567;52.444;13.556;2023-02-27T16:45:15;2.72;;;1.60;;
7051;SDS011;3567;52.444;13.556;2023-02-27T16:47:43;4.30;;;1.52;;
7051;SDS011;3567;52.444;13.556;2023-02-27T16:50:28;3.25;;;1.27;;
7051;SDS011;3567;52.444;13.556;2023-02-27T16:52:57;2.58;;;2.17;;
7051;SDS011;3567;52.444;13.556;2023-02-27T16:55:23;4.68;;;1.58;;
7051;SDS011;3567;52.444;13.556;2023-02-27T16:57:49;3.97;;;1.75;;
7051;SDS011;3567;52.444;13.556;2023-02-27T17:00:15;3.13;;;1.30;;
7051;SDS011;3567;52.444;13.556;2023-02-27T17:02:42;1.75;;;1.00;;
7051;SDS011;3567;52.444;13.556;2023-02-27T17:05:08;3.05;;;0.90;;
7051;SDS011;3567;52.444;13.556;2023-02-27T17:07:34;4.30;;;1.00;;
7051;SDS011;3567;52.444;13.556;2023-02-27T17:10:00;1.42;;;0.80;;
7051;SDS011;3567;52.444;13.556;2023-02-27T17:12:26;1.42;;;0.82;;
7051;SDS011;3567;52.444;13.556;2023-02-27T17:14:52;1.38;;;0.80;;
7051;SDS011;3567;52.444;13.556;2023-02-27T17:17:17;1.35;;;0.70;;
7051;SDS011;3567;52.444;13.556;2023-02-27T17:19:43;0.50;;;0.50;;
7051;SDS011;3567;52.444;13.556;2023-02-27T17:22:09;1.17;;;0.70;;
7051;SDS011;3567;52.444;13.556;2023-02-27T17:24:35;3.45;;;0.70;;
7051;SDS011;3567;52.444;13.556;2023-02-27T17:27:01;4.50;;;0.85;;
7051;SDS011;3567;52.444;13.556;2023-02-27T17:29:27;3.55;;;0.82;;
7051;SDS011;3567;52.444;13.556;2023-02-27T17:31:52;2.50;;;0.90;;
7051;SDS011;3567;52.444;13.556;2023-02-27T17:34:18;1.05;;;0.68;;
7051;SDS011;3567;52.444;13.556;2023-02-27T17:36:43;1.38;;;0.98;;
7051;SDS011;3567;52.444;13.556;2023-02-27T17:39:12;2.70;;;1.38;;
7051;SDS011;3567;52.444;13.556;2023-02-27T17:41:41;3.53;;;1.40;;
7051;SDS011;3567;52.444;13.556;2023-02-27T17:44:08;2.67;;;0.93;;
7051;SDS011;3567;52.444;13.556;2023-02-27T17:46:35;2.92;;;0.80;;
7051;SDS011;3567;52.444;13.556;2023-02-27T17:49:00;1.25;;;0.80;;
7051;SDS011;3567;52.444;13.556;2023-02-27T17:51:27;3.92;;;1.00;;
7051;SDS011;3567;52.444;13.556;2023-02-27T17:53:54;4.43;;;1.50;;
7051;SDS011;3567;52.444;13.556;2023-02-27T17:56:19;3.45;;;0.90;;
7051;SDS011;3567;52.444;13.556;2023-02-27T17:58:44;2.60;;;1.55;;
7051;SDS011;3567;52.444;13.556;2023-02-27T18:01:11;2.00;;;1.00;;
7051;SDS011;3567;52.444;13.556;2023-02-27T18:03:38;2.35;;;1.10;;
7051;SDS011;3567;52.444;13.556;2023-02-27T18:06:05;1.20;;;1.10;;
7051;SDS011;3567;52.444;13.556;2023-02-27T18:08:31;1.80;;;1.00;;
7051;SDS011;3567;52.444;13.556;2023-02-27T18:10:57;4.32;;;0.98;;
7051;SDS011;3567;52.444;13.556;2023-02-27T18:13:23;2.50;;;1.10;;
7051;SDS011;3567;52.444;13.556;2023-02-27T18:15:51;1.55;;;1.33;;
7051;SDS011;3567;52.444;13.556;2023-02-27T18:18:17;2.28;;;1.67;;